Prostejov, Czech Republic
Current Conditions -  °F | °C
As of 11:30 PM on Friday 31 Oct 2014 (Local Time) from LKTB Reporting Station
Haze Haze  
Wind Chill: 43°   Ceiling: 2700
Heat Index: 43°   Visibility: 2.3mi
Dew Point: 41°   Wind: 1mph
Humidity: 93%   Direction: NA
Pressure: 30.33"   Gusts: NA
Location:  49.48°N, 17.12°E
Report Text: LKTB 312130Z VRB01KT 3800 BR BKN027 06/05 Q1027 NOSIG
Loading
Personal Weather Stations






























Interactive Weather Map
Tropical Storm Tracking
New forecast layout! Learn more

10-Day Weather Forecast

Advertisements
Track Severe Weather on mobile